createdAt,value
2018-09-29T00:01:26.690Z,67.58
2018-09-29T00:03:55.703Z,67.02
2018-09-29T00:06:23.269Z,67.27
2018-09-29T00:08:51.879Z,67.41
2018-09-29T00:11:19.738Z,67.70
2018-09-29T00:13:47.279Z,67.25
2018-09-29T00:16:18.548Z,67.52
2018-09-29T00:18:46.767Z,67.70
2018-09-29T00:21:14.410Z,67.67
2018-09-29T00:23:41.989Z,68.12
2018-09-29T00:26:10.011Z,67.72
2018-09-29T00:28:37.654Z,68.05
2018-09-29T00:31:05.202Z,67.89
2018-09-29T00:33:32.767Z,67.77
2018-09-29T00:36:01.657Z,67.50
2018-09-29T00:38:30.101Z,67.86
2018-09-29T00:40:57.918Z,68.16
2018-09-29T00:43:25.445Z,68.00
2018-09-29T00:45:53.379Z,68.07
2018-09-29T00:48:20.960Z,68.17
2018-09-29T00:50:48.502Z,68.09
2018-09-29T00:53:16.033Z,68.27
2018-09-29T00:55:43.999Z,68.07
2018-09-29T00:58:11.555Z,68.09
2018-09-29T01:00:39.665Z,68.21
2018-09-29T01:03:08.691Z,68.09
2018-09-29T01:05:37.052Z,68.45
2018-09-29T01:08:04.752Z,68.12
2018-09-29T01:10:32.684Z,68.19
2018-09-29T01:13:00.351Z,68.20
2018-09-29T01:15:27.948Z,68.32
2018-09-29T01:17:55.479Z,68.64
2018-09-29T01:20:23.515Z,68.47
2018-09-29T01:22:51.743Z,68.29
2018-09-29T01:25:19.345Z,68.09
2018-09-29T01:27:48.338Z,68.34
2018-09-29T01:30:18.472Z,68.62
2018-09-29T01:32:46.010Z,68.65
2018-09-29T01:35:13.573Z,68.35
2018-09-29T01:37:41.119Z,68.57
2018-09-29T01:40:08.670Z,68.69
2018-09-29T01:42:36.245Z,68.41
2018-09-29T01:45:03.778Z,68.66
2018-09-29T01:47:31.657Z,68.72
2018-09-29T01:49:59.214Z,68.83
2018-09-29T01:52:26.761Z,68.62
2018-09-29T01:54:54.683Z,68.73
2018-09-29T01:57:22.758Z,68.87
2018-09-29T01:59:50.349Z,68.68
2018-09-29T02:02:21.602Z,68.83
2018-09-29T02:04:49.805Z,68.69
2018-09-29T02:07:17.334Z,68.88
2018-09-29T02:09:44.878Z,69.14
2018-09-29T02:12:12.456Z,68.79
2018-09-29T02:14:40.486Z,68.87
2018-09-29T02:17:08.693Z,68.80
2018-09-29T02:19:37.419Z,68.95
2018-09-29T02:22:04.966Z,68.91
2018-09-29T02:24:33.017Z,68.94
2018-09-29T02:27:00.839Z,69.29
2018-09-29T02:29:28.417Z,69.27
2018-09-29T02:31:55.962Z,68.71
2018-09-29T02:34:24.024Z,69.00
2018-09-29T02:36:51.608Z,69.47
2018-09-29T02:39:19.175Z,69.25
2018-09-29T02:41:47.402Z,69.08
2018-09-29T02:44:15.265Z,69.36
2018-09-29T02:46:42.790Z,69.18
2018-09-29T02:49:10.398Z,69.51
2018-09-29T02:51:38.873Z,69.14
2018-09-29T02:54:08.871Z,69.44
2018-09-29T02:56:36.568Z,69.71
2018-09-29T02:59:04.157Z,69.36
2018-09-29T03:01:31.728Z,69.63
2018-09-29T03:03:59.604Z,69.81
2018-09-29T03:06:27.231Z,69.52
2018-09-29T03:08:54.827Z,69.59
2018-09-29T03:11:22.383Z,69.49
2018-09-29T03:13:51.319Z,69.75
2018-09-29T03:16:18.862Z,69.46
2018-09-29T03:18:46.461Z,69.64
2018-09-29T03:21:14.019Z,69.61
2018-09-29T03:23:41.968Z,69.88
2018-09-29T03:26:09.559Z,69.68
2018-09-29T03:28:37.996Z,69.74
2018-09-29T03:31:05.564Z,69.74
2018-09-29T03:33:34.134Z,69.64
2018-09-29T03:36:01.724Z,69.74
2018-09-29T03:38:29.285Z,69.99
2018-09-29T03:40:57.186Z,69.73
2018-09-29T03:43:24.750Z,69.98
2018-09-29T03:45:52.639Z,69.74
2018-09-29T03:48:20.587Z,69.73
2018-09-29T03:50:48.167Z,69.89
2018-09-29T03:53:15.753Z,69.70
2018-09-29T03:55:43.386Z,69.68
2018-09-29T03:58:11.247Z,69.35
2018-09-29T04:00:38.785Z,69.53
2018-09-29T04:03:06.344Z,69.28
2018-09-29T04:05:33.889Z,69.27
2018-09-29T04:08:01.997Z,69.62
2018-09-29T04:10:29.546Z,69.40
2018-09-29T04:12:57.166Z,69.42
2018-09-29T04:15:24.743Z,69.39
2018-09-29T04:17:52.820Z,69.47
2018-09-29T04:20:21.785Z,69.20
2018-09-29T04:22:51.874Z,69.23
2018-09-29T04:25:19.408Z,69.54
2018-09-29T04:27:47.321Z,69.75
2018-09-29T04:30:14.914Z,69.79
2018-09-29T04:32:42.476Z,69.51
2018-09-29T04:35:11.487Z,69.60
2018-09-29T04:37:39.614Z,69.89
2018-09-29T04:40:08.336Z,70.12
2018-09-29T04:42:35.895Z,69.91
2018-09-29T04:45:03.817Z,70.04
2018-09-29T04:47:31.416Z,70.12
2018-09-29T04:49:58.947Z,70.16
2018-09-29T04:52:26.519Z,70.18
2018-09-29T04:54:54.426Z,70.15
2018-09-29T04:57:21.991Z,70.33
2018-09-29T04:59:49.556Z,70.29
2018-09-29T05:02:17.399Z,70.39
2018-09-29T05:04:44.996Z,70.20
2018-09-29T05:07:12.651Z,70.39
2018-09-29T05:09:40.598Z,70.21
2018-09-29T05:12:08.235Z,70.31
2018-09-29T05:14:35.804Z,70.52
2018-09-29T05:17:03.385Z,70.25
2018-09-29T05:19:31.355Z,70.02
2018-09-29T05:21:59.109Z,70.15
2018-09-29T05:24:26.675Z,70.40
2018-09-29T05:26:54.298Z,70.19
2018-09-29T05:29:22.351Z,70.07
2018-09-29T05:31:51.000Z,69.91
2018-09-29T05:34:18.803Z,70.10
2018-09-29T05:36:46.338Z,70.00
2018-09-29T05:39:14.178Z,70.51
2018-09-29T05:41:42.744Z,70.24
2018-09-29T05:44:10.331Z,70.25
2018-09-29T05:46:38.471Z,70.15
2018-09-29T05:49:06.140Z,70.17
2018-09-29T05:51:33.842Z,70.28
2018-09-29T05:54:02.965Z,70.03
2018-09-29T05:56:30.533Z,70.48
2018-09-29T05:58:59.314Z,70.27
2018-09-29T06:01:29.358Z,69.81
2018-09-29T06:03:56.928Z,69.97
2018-09-29T06:06:24.479Z,69.56
2018-09-29T06:08:53.228Z,69.40
2018-09-29T06:11:20.854Z,69.19
2018-09-29T06:13:48.458Z,69.16
2018-09-29T06:16:17.530Z,68.95
2018-09-29T06:18:46.049Z,68.80
2018-09-29T06:21:13.614Z,68.72
2018-09-29T06:23:42.563Z,68.77
2018-09-29T06:26:11.226Z,68.61
2018-09-29T06:28:39.375Z,68.54
2018-09-29T06:31:09.853Z,68.79
2018-09-29T06:33:37.431Z,68.51
2018-09-29T06:36:06.639Z,68.98
2018-09-29T06:38:35.504Z,68.92
2018-09-29T06:41:03.347Z,68.35
2018-09-29T06:43:30.945Z,68.33
2018-09-29T06:45:58.920Z,67.91
2018-09-29T06:48:26.491Z,68.30
2018-09-29T06:50:54.174Z,67.96
2018-09-29T06:53:25.358Z,67.49
2018-09-29T06:55:53.395Z,67.37
2018-09-29T06:58:21.963Z,67.24
2018-09-29T07:00:50.568Z,67.06
2018-09-29T07:03:18.301Z,67.25
2018-09-29T07:05:45.842Z,66.89
2018-09-29T07:08:13.767Z,66.92
2018-09-29T07:10:41.348Z,66.56
2018-09-29T07:13:08.893Z,66.26
2018-09-29T07:15:36.730Z,65.75
2018-09-29T07:18:04.403Z,65.91
2018-09-29T07:20:33.447Z,65.61
2018-09-29T07:23:01.628Z,64.99
2018-09-29T07:25:29.265Z,65.00
2018-09-29T07:27:56.828Z,64.45
2018-09-29T07:30:24.754Z,64.22
2018-09-29T07:32:52.350Z,64.16
2018-09-29T07:35:19.922Z,64.06
2018-09-29T07:37:48.185Z,63.72
2018-09-29T07:40:15.745Z,64.07
2018-09-29T07:42:43.317Z,63.68
2018-09-29T07:45:12.159Z,63.13
2018-09-29T07:47:39.700Z,63.31
2018-09-29T07:50:07.980Z,63.18
2018-09-29T07:52:36.815Z,62.76
2018-09-29T07:55:04.401Z,62.88
2018-09-29T07:57:32.013Z,62.31
2018-09-29T08:00:00.849Z,62.73
2018-09-29T08:02:29.363Z,62.44
2018-09-29T08:04:57.741Z,61.94
2018-09-29T08:07:25.793Z,61.65
2018-09-29T08:09:54.007Z,61.91
2018-09-29T08:12:26.373Z,61.44
2018-09-29T08:14:54.371Z,60.82
2018-09-29T08:17:24.407Z,60.95
2018-09-29T08:19:52.682Z,60.94
2018-09-29T08:22:21.585Z,60.85
2018-09-29T08:24:50.489Z,60.32
2018-09-29T08:27:19.030Z,60.13
2018-09-29T08:29:47.250Z,60.04
2018-09-29T08:32:14.965Z,59.24
2018-09-29T08:34:42.567Z,58.99
2018-09-29T08:37:11.259Z,59.79
2018-09-29T08:39:38.859Z,58.91
2018-09-29T08:42:07.323Z,58.71
2018-09-29T08:44:35.278Z,59.13
2018-09-29T08:47:04.599Z,58.96
2018-09-29T08:49:35.728Z,58.51
2018-09-29T08:52:03.615Z,58.29
2018-09-29T08:54:32.142Z,58.52
2018-09-29T08:57:00.388Z,57.89
2018-09-29T08:59:28.259Z,58.35
2018-09-29T09:01:55.833Z,57.54
2018-09-29T09:04:28.099Z,57.21
2018-09-29T09:06:56.478Z,57.55
2018-09-29T09:11:58.675Z,56.57
2018-09-29T09:14:28.404Z,56.08
2018-09-29T09:16:56.995Z,55.46
2018-09-29T09:19:24.586Z,54.76
2018-09-29T09:21:52.521Z,54.31
2018-09-29T09:24:20.528Z,54.41
2018-09-29T09:26:48.216Z,54.14
2018-09-29T09:29:16.171Z,54.39
2018-09-29T09:31:44.315Z,53.96
2018-09-29T09:34:11.883Z,53.47
2018-09-29T09:36:39.790Z,52.73
2018-09-29T09:39:07.353Z,51.92
2018-09-29T09:41:34.882Z,50.10
2018-09-29T09:44:03.769Z,47.97
2018-09-29T09:46:31.340Z,47.13
2018-09-29T09:48:58.884Z,46.50
2018-09-29T09:51:28.533Z,44.94
2018-09-29T09:53:57.552Z,44.14
2018-09-29T09:56:25.977Z,43.68
2018-09-29T09:58:54.643Z,42.97
2018-09-29T10:01:27.393Z,42.60
2018-09-29T10:03:55.629Z,41.75
2018-09-29T10:06:24.390Z,40.94
2018-09-29T10:08:51.983Z,40.16
2018-09-29T10:11:19.576Z,39.68
2018-09-29T10:13:47.543Z,39.15
2018-09-29T10:16:15.090Z,38.78
2018-09-29T10:18:42.761Z,38.62
2018-09-29T10:21:10.767Z,38.49
2018-09-29T10:23:38.370Z,37.73
2018-09-29T10:26:05.987Z,38.26
2018-09-29T10:28:34.047Z,37.72
2018-09-29T10:31:01.669Z,38.21
2018-09-29T10:33:29.352Z,37.52
2018-09-29T10:35:57.346Z,36.91
2018-09-29T10:38:26.284Z,37.16
2018-09-29T10:40:54.461Z,36.95
2018-09-29T10:43:24.192Z,36.04
2018-09-29T10:45:51.820Z,35.31
2018-09-29T10:48:19.390Z,36.69
2018-09-29T10:50:47.394Z,35.69
2018-09-29T10:53:15.016Z,36.54
2018-09-29T10:55:42.802Z,35.73
2018-09-29T10:58:10.774Z,35.87
2018-09-29T11:00:38.974Z,36.05
2018-09-29T11:03:06.524Z,35.81
2018-09-29T11:05:34.649Z,35.92
2018-09-29T11:08:02.494Z,36.18
2018-09-29T11:10:30.107Z,36.25
2018-09-29T11:12:57.675Z,36.15
2018-09-29T11:15:25.346Z,36.06
2018-09-29T11:17:54.170Z,34.95
2018-09-29T11:20:23.650Z,34.93
2018-09-29T11:22:53.601Z,34.85
2018-09-29T11:25:22.515Z,34.58
2018-09-29T11:27:50.223Z,34.24
2018-09-29T11:30:19.098Z,34.37
2018-09-29T11:32:48.450Z,33.10
2018-09-29T11:35:16.029Z,33.76
2018-09-29T11:37:43.612Z,34.57
2018-09-29T11:40:12.221Z,34.44
2018-09-29T11:42:39.822Z,33.37
2018-09-29T11:45:08.269Z,33.54
2018-09-29T11:47:40.133Z,32.85
2018-09-29T11:50:07.866Z,33.65
2018-09-29T11:52:35.462Z,34.38
2018-09-29T11:55:04.543Z,34.42
2018-09-29T11:57:34.546Z,36.36
2018-09-29T12:00:02.171Z,36.54
2018-09-29T12:02:30.803Z,36.54
2018-09-29T12:04:58.376Z,35.95
2018-09-29T12:07:27.475Z,35.47
2018-09-29T12:09:55.289Z,34.86
2018-09-29T12:12:24.673Z,35.26
2018-09-29T12:14:52.284Z,34.95
2018-09-29T12:17:20.119Z,34.16
2018-09-29T12:19:48.733Z,32.78
2018-09-29T12:22:16.352Z,33.29
2018-09-29T12:24:44.368Z,33.25
2018-09-29T12:27:11.925Z,32.32
2018-09-29T12:29:39.550Z,33.72
2018-09-29T12:32:07.529Z,33.67
2018-09-29T12:34:35.167Z,34.43
2018-09-29T12:37:05.795Z,35.38
2018-09-29T12:39:33.847Z,36.65
2018-09-29T12:42:01.457Z,38.24
2018-09-29T12:44:29.135Z,39.73
2018-09-29T12:46:56.974Z,40.94
2018-09-29T12:49:24.597Z,42.44
2018-09-29T12:51:52.227Z,43.26
2018-09-29T12:54:21.193Z,43.95
2018-09-29T12:56:49.357Z,45.28
2018-09-29T12:59:17.326Z,45.82
2018-09-29T13:01:45.336Z,45.69
2018-09-29T13:04:12.900Z,45.81
2018-09-29T13:06:41.358Z,45.97
2018-09-29T13:09:09.301Z,46.79
2018-09-29T13:11:37.035Z,47.17
2018-09-29T13:14:05.475Z,47.16
2018-09-29T13:16:34.054Z,47.14
2018-09-29T13:19:01.667Z,47.01
2018-09-29T13:21:29.626Z,46.76
2018-09-29T13:23:57.664Z,47.50
2018-09-29T13:26:26.320Z,46.86
2018-09-29T13:28:53.915Z,46.93
2018-09-29T13:31:22.354Z,47.71
2018-09-29T13:33:49.919Z,47.60
2018-09-29T13:36:18.337Z,47.57
2018-09-29T13:38:49.926Z,46.81
2018-09-29T13:41:17.537Z,46.70
2018-09-29T13:43:45.312Z,46.54
2018-09-29T13:46:13.231Z,46.51
2018-09-29T13:48:40.834Z,47.04
2018-09-29T13:51:08.496Z,46.12
2018-09-29T13:53:36.399Z,46.58
2018-09-29T13:56:04.527Z,46.05
2018-09-29T13:58:32.326Z,45.95
2018-09-29T14:01:03.418Z,45.94
2018-09-29T14:03:32.137Z,45.59
2018-09-29T14:05:59.934Z,46.11
2018-09-29T14:08:32.488Z,46.14
2018-09-29T14:11:00.812Z,46.04
2018-09-29T14:13:28.450Z,46.20
2018-09-29T14:15:56.924Z,46.12
2018-09-29T14:18:24.563Z,45.19
2018-09-29T14:20:52.531Z,45.10
2018-09-29T14:23:22.669Z,45.11
2018-09-29T14:25:52.035Z,45.00
2018-09-29T14:28:20.674Z,45.52
2018-09-29T14:30:48.235Z,45.52
2018-09-29T14:33:19.668Z,45.58
2018-09-29T14:35:48.229Z,44.91
2018-09-29T14:38:15.806Z,45.02
2018-09-29T14:40:43.415Z,45.28
2018-09-29T14:43:11.661Z,44.66
2018-09-29T14:45:39.225Z,45.06
2018-09-29T14:48:08.031Z,44.71
2018-09-29T14:50:35.826Z,44.42
2018-09-29T14:53:03.593Z,45.02
2018-09-29T14:55:31.666Z,44.48
2018-09-29T14:58:00.666Z,44.20
2018-09-29T15:00:28.225Z,44.77
2018-09-29T15:02:56.061Z,43.90
2018-09-29T15:05:24.341Z,43.83
2018-09-29T15:07:54.621Z,43.89
2018-09-29T15:10:22.546Z,43.71
2018-09-29T15:12:50.089Z,43.14
2018-09-29T15:15:18.328Z,43.94
2018-09-29T15:17:48.242Z,43.14
2018-09-29T15:20:16.694Z,43.37
2018-09-29T15:22:44.310Z,42.84
2018-09-29T15:25:12.182Z,42.23
2018-09-29T15:27:40.309Z,42.41
2018-09-29T15:30:07.864Z,41.09
2018-09-29T15:32:35.826Z,40.97
2018-09-29T15:35:04.417Z,40.28
2018-09-29T15:37:32.514Z,40.57
2018-09-29T15:40:00.552Z,40.65
2018-09-29T15:42:29.175Z,40.98
2018-09-29T15:44:57.425Z,41.62
2018-09-29T15:47:30.015Z,42.90
2018-09-29T15:49:58.255Z,43.87
2018-09-29T15:52:26.450Z,44.35
2018-09-29T15:54:56.477Z,44.32
2018-09-29T15:57:26.347Z,45.68
2018-09-29T15:59:56.811Z,45.28
2018-09-29T16:02:27.663Z,45.67
2018-09-29T16:04:55.307Z,46.70
2018-09-29T16:07:23.674Z,46.66
2018-09-29T16:09:52.496Z,46.53
2018-09-29T16:12:20.669Z,46.47
2018-09-29T16:14:48.662Z,46.94
2018-09-29T16:17:16.693Z,47.10
2018-09-29T16:19:44.241Z,47.76
2018-09-29T16:22:12.391Z,47.84
2018-09-29T16:24:40.261Z,48.00
2018-09-29T16:27:07.873Z,48.03
2018-09-29T16:29:35.723Z,48.18
2018-09-29T16:32:04.574Z,48.07
2018-09-29T16:34:33.398Z,47.87
2018-09-29T16:37:02.322Z,48.12
2018-09-29T16:39:30.355Z,48.42
2018-09-29T16:41:58.648Z,48.45
2018-09-29T16:44:26.941Z,48.55
2018-09-29T16:46:57.378Z,48.45
2018-09-29T16:49:26.672Z,49.17
2018-09-29T16:51:55.837Z,49.20
2018-09-29T16:54:24.813Z,49.53
2018-09-29T16:56:53.981Z,49.61
2018-09-29T16:59:22.542Z,49.79
2018-09-29T17:01:53.272Z,49.71
2018-09-29T17:04:21.470Z,50.61
2018-09-29T17:06:49.068Z,50.22
2018-09-29T17:09:17.871Z,50.54
2018-09-29T17:11:46.087Z,50.58
2018-09-29T17:14:13.655Z,51.46
2018-09-29T17:16:41.598Z,51.10
2018-09-29T17:19:09.192Z,51.69
2018-09-29T17:21:37.369Z,51.55
2018-09-29T17:24:05.489Z,51.88
2018-09-29T17:26:33.077Z,51.23
2018-09-29T17:29:00.683Z,51.62
2018-09-29T17:31:28.727Z,51.46
2018-09-29T17:33:56.319Z,51.57
2018-09-29T17:36:24.610Z,52.22
2018-09-29T17:38:55.309Z,52.61
2018-09-29T17:41:23.674Z,52.65
2018-09-29T17:43:51.259Z,52.67
2018-09-29T17:46:22.178Z,52.44
2018-09-29T17:48:50.747Z,52.46
2018-09-29T17:51:18.522Z,53.01
2018-09-29T17:53:46.393Z,53.06
2018-09-29T17:56:13.995Z,53.04
2018-09-29T17:58:41.584Z,52.59
2018-09-29T18:01:09.583Z,53.17
2018-09-29T18:03:38.145Z,53.11
2018-09-29T18:06:07.100Z,52.94
2018-09-29T18:08:34.997Z,53.42
2018-09-29T18:11:03.169Z,53.17
2018-09-29T18:13:30.754Z,53.59
2018-09-29T18:15:59.797Z,54.02
2018-09-29T18:18:27.398Z,53.88
2018-09-29T18:20:56.682Z,54.20
2018-09-29T18:23:25.762Z,54.56
2018-09-29T18:25:53.375Z,53.78
2018-09-29T18:28:21.652Z,54.38
2018-09-29T18:30:50.511Z,54.53
2018-09-29T18:33:20.324Z,54.49
2018-09-29T18:35:51.445Z,54.62
2018-09-29T18:38:20.583Z,54.34
2018-09-29T18:40:48.165Z,54.88
2018-09-29T18:43:16.318Z,54.81
2018-09-29T18:45:44.301Z,54.44
2018-09-29T18:48:11.837Z,54.82
2018-09-29T18:50:39.349Z,55.13
2018-09-29T18:53:07.246Z,55.62
2018-09-29T18:55:35.851Z,55.80
2018-09-29T18:58:03.425Z,55.79
2018-09-29T19:00:32.797Z,55.91
2018-09-29T19:03:00.620Z,55.72
2018-09-29T19:05:29.380Z,55.51
2018-09-29T19:07:58.347Z,56.15
2018-09-29T19:10:28.706Z,55.80
2018-09-29T19:12:57.099Z,56.23
2018-09-29T19:15:25.008Z,56.24
2018-09-29T19:17:53.158Z,55.98
2018-09-29T19:20:20.678Z,56.11
2018-09-29T19:22:49.240Z,55.99
2018-09-29T19:25:17.408Z,56.60
2018-09-29T19:27:46.480Z,56.09
2018-09-29T19:30:17.301Z,56.93
2018-09-29T19:32:48.529Z,56.57
2018-09-29T19:35:16.302Z,57.06
2018-09-29T19:37:45.712Z,56.59
2018-09-29T19:40:13.598Z,56.70
2018-09-29T19:45:16.929Z,57.30
2018-09-29T19:47:44.470Z,57.05
2018-09-29T19:50:12.303Z,57.29
2018-09-29T19:52:40.823Z,57.45
2018-09-29T19:55:09.948Z,57.39
2018-09-29T19:57:39.625Z,57.13
2018-09-29T20:00:08.659Z,57.53
2018-09-29T20:02:37.858Z,57.63
2018-09-29T20:05:10.423Z,57.56
2018-09-29T20:07:38.243Z,56.70
2018-09-29T20:10:08.367Z,56.95
2018-09-29T20:12:36.629Z,57.18
2018-09-29T20:15:04.430Z,57.59
2018-09-29T20:17:32.371Z,57.51
2018-09-29T20:20:03.664Z,57.84
2018-09-29T20:22:35.454Z,58.16
2018-09-29T20:25:05.243Z,58.88
2018-09-29T20:27:34.740Z,60.02
2018-09-29T20:30:04.282Z,59.71
2018-09-29T20:35:14.691Z,60.09
2018-09-29T20:37:44.473Z,60.51
2018-09-29T20:40:12.015Z,60.30
2018-09-29T20:42:39.547Z,60.21
2018-09-29T20:45:07.101Z,60.53
2018-09-29T20:47:34.662Z,61.16
2018-09-29T20:50:03.687Z,61.41
2018-09-29T20:52:32.205Z,60.93
2018-09-29T20:55:00.767Z,60.87
2018-09-29T20:57:30.517Z,60.80
2018-09-29T20:59:59.298Z,60.82
2018-09-29T21:02:28.492Z,60.46
2018-09-29T21:04:57.063Z,60.35
2018-09-29T21:07:24.847Z,60.43
2018-09-29T21:09:52.964Z,61.01
2018-09-29T21:12:21.914Z,60.13
2018-09-29T21:14:49.555Z,60.43
2018-09-29T21:17:18.315Z,59.97
2018-09-29T21:19:46.344Z,60.47
2018-09-29T21:22:13.921Z,60.02
2018-09-29T21:24:41.476Z,60.41
2018-09-29T21:27:09.521Z,60.70
2018-09-29T21:29:37.108Z,60.06
2018-09-29T21:32:04.652Z,60.36
2018-09-29T21:34:32.682Z,60.79
2018-09-29T21:37:01.354Z,60.71
2018-09-29T21:39:29.977Z,60.42
2018-09-29T21:41:59.330Z,61.03
2018-09-29T21:44:26.890Z,60.80
2018-09-29T21:46:55.363Z,60.45
2018-09-29T21:49:24.395Z,60.43
2018-09-29T21:51:52.657Z,60.67
2018-09-29T21:54:20.205Z,60.96
2018-09-29T21:56:49.882Z,61.50
2018-09-29T21:59:21.336Z,61.06
2018-09-29T22:01:49.699Z,61.03
2018-09-29T22:04:18.803Z,61.52
2018-09-29T22:06:46.364Z,61.60
2018-09-29T22:09:18.722Z,61.69
2018-09-29T22:11:46.744Z,61.12
2018-09-29T22:14:16.051Z,61.63
2018-09-29T22:16:44.511Z,61.58
2018-09-29T22:19:13.977Z,61.85
2018-09-29T22:21:41.544Z,61.37
2018-09-29T22:24:09.181Z,61.08
2018-09-29T22:26:38.551Z,61.77
2018-09-29T22:29:07.323Z,61.38
2018-09-29T22:31:34.948Z,61.72
2018-09-29T22:34:03.840Z,61.99
2018-09-29T22:36:31.385Z,61.19
2018-09-29T22:38:59.565Z,61.91
2018-09-29T22:41:28.118Z,61.74
2018-09-29T22:43:55.707Z,61.20
2018-09-29T22:46:27.847Z,61.49
2018-09-29T22:48:55.736Z,61.39
2018-09-29T22:51:23.321Z,61.65
2018-09-29T22:53:52.737Z,61.15
2018-09-29T22:56:20.786Z,61.38
2018-09-29T22:58:48.383Z,61.67
2018-09-29T23:01:16.000Z,61.62
2018-09-29T23:03:44.043Z,61.52
2018-09-29T23:06:11.628Z,61.50
2018-09-29T23:08:39.227Z,61.40
2018-09-29T23:11:07.125Z,61.62
2018-09-29T23:13:34.707Z,61.60
2018-09-29T23:16:02.932Z,61.82
2018-09-29T23:18:31.007Z,61.79
2018-09-29T23:20:58.616Z,61.93
2018-09-29T23:23:27.223Z,61.80
2018-09-29T23:25:56.336Z,62.46
2018-09-29T23:28:24.484Z,61.86
2018-09-29T23:30:52.095Z,62.45
2018-09-29T23:33:20.024Z,62.17
2018-09-29T23:35:47.681Z,61.95
2018-09-29T23:38:15.906Z,62.70
2018-09-29T23:40:43.885Z,62.05
2018-09-29T23:43:11.488Z,62.57
2018-09-29T23:45:39.094Z,62.20
2018-09-29T23:48:08.749Z,62.63
2018-09-29T23:50:40.479Z,62.47
2018-09-29T23:53:08.317Z,62.75
2018-09-29T23:55:36.421Z,62.88
2018-09-29T23:58:04.837Z,62.43
